createdAt,value
2023-03-17T00:04:02.051Z,100.00
2023-03-17T00:09:08.844Z,100.00
2023-03-17T00:14:14.842Z,100.00
2023-03-17T00:19:21.800Z,100.00
2023-03-17T00:24:25.999Z,100.00
2023-03-17T00:29:31.584Z,100.00
2023-03-17T00:34:36.381Z,100.00
2023-03-17T00:39:58.042Z,100.00
2023-03-17T00:45:04.238Z,100.00
2023-03-17T00:50:12.289Z,100.00
2023-03-17T00:55:18.615Z,100.00
2023-03-17T01:00:26.801Z,100.00
2023-03-17T01:05:31.103Z,100.00
2023-03-17T01:10:36.731Z,100.00
2023-03-17T01:15:45.154Z,100.00
2023-03-17T01:20:52.380Z,100.00
2023-03-17T01:25:57.591Z,100.00
2023-03-17T01:31:02.956Z,100.00
2023-03-17T01:36:07.792Z,100.00
2023-03-17T01:41:13.294Z,100.00
2023-03-17T01:46:25.996Z,100.00
2023-03-17T01:51:34.473Z,100.00
2023-03-17T01:56:45.180Z,100.00
2023-03-17T02:01:51.898Z,100.00
2023-03-17T02:06:58.960Z,100.00
2023-03-17T02:12:05.337Z,100.00
2023-03-17T02:17:10.041Z,100.00
2023-03-17T02:22:16.660Z,100.00
2023-03-17T02:27:27.995Z,100.00
2023-03-17T02:32:32.008Z,100.00
2023-03-17T02:37:37.464Z,100.00
2023-03-17T02:42:42.169Z,100.00
2023-03-17T02:47:50.407Z,100.00
2023-03-17T02:52:56.173Z,100.00
2023-03-17T02:58:02.191Z,100.00
2023-03-17T03:03:06.228Z,100.00
2023-03-17T03:08:11.698Z,100.00
2023-03-17T03:13:15.882Z,100.00
2023-03-17T03:18:20.031Z,100.00
2023-03-17T03:23:25.476Z,100.00
2023-03-17T03:28:30.824Z,100.00
2023-03-17T03:33:34.905Z,100.00
2023-03-17T03:38:41.687Z,100.00
2023-03-17T03:43:45.621Z,100.00
2023-03-17T03:48:49.608Z,100.00
2023-03-17T03:53:55.114Z,100.00
2023-03-17T03:59:00.032Z,100.00
2023-03-17T04:04:04.012Z,100.00
2023-03-17T04:09:10.044Z,100.00
2023-03-17T04:14:14.159Z,100.00
2023-03-17T04:19:18.250Z,100.00
2023-03-17T04:24:23.934Z,100.00
2023-03-17T04:29:27.878Z,100.00
2023-03-17T04:34:31.942Z,100.00
2023-03-17T04:39:39.530Z,100.00
2023-03-17T04:44:43.588Z,100.00
2023-03-17T04:49:47.567Z,100.00
2023-03-17T04:54:53.482Z,100.00
2023-03-17T04:59:58.902Z,100.00
2023-03-17T05:05:02.922Z,100.00
2023-03-17T05:10:09.603Z,100.00
2023-03-17T05:15:13.615Z,100.00
2023-03-17T05:20:18.130Z,100.00
2023-03-17T05:25:23.613Z,100.00
2023-03-17T05:30:28.087Z,100.00
2023-03-17T05:35:32.327Z,100.00
2023-03-17T05:40:39.323Z,100.00
2023-03-17T05:45:43.253Z,100.00
2023-03-17T05:50:47.405Z,100.00
2023-03-17T05:55:53.475Z,100.00
2023-03-17T06:00:57.592Z,100.00
2023-03-17T06:06:01.841Z,100.00
2023-03-17T06:11:07.411Z,100.00
2023-03-17T06:16:11.602Z,100.00
2023-03-17T06:21:16.425Z,100.00
2023-03-17T06:26:22.260Z,100.00
2023-03-17T06:31:26.784Z,100.00
2023-03-17T06:36:31.165Z,100.00
2023-03-17T06:41:36.804Z,100.00
2023-03-17T06:46:41.098Z,100.00
2023-03-17T06:51:45.043Z,100.00
2023-03-17T06:56:50.409Z,100.00
2023-03-17T07:01:54.527Z,100.00
2023-03-17T07:06:58.727Z,100.00
2023-03-17T07:12:06.318Z,100.00
2023-03-17T07:17:14.634Z,100.00
2023-03-17T07:22:18.576Z,100.00
2023-03-17T07:27:25.424Z,100.00
2023-03-17T07:32:29.665Z,100.00
2023-03-17T07:37:33.658Z,100.00
2023-03-17T07:42:40.032Z,100.00
2023-03-17T07:47:44.137Z,100.00
2023-03-17T07:52:48.279Z,100.00
2023-03-17T07:57:54.072Z,100.00
2023-03-17T08:03:09.486Z,100.00
2023-03-17T08:08:14.705Z,100.00
2023-03-17T08:13:21.128Z,100.00
2023-03-17T08:18:25.085Z,100.00
2023-03-17T08:23:29.222Z,100.00
2023-03-17T08:28:35.141Z,100.00
2023-03-17T08:33:41.050Z,89.12
2023-03-17T08:38:46.247Z,88.80
2023-03-17T08:43:52.576Z,82.29
2023-03-17T08:48:58.186Z,89.10
2023-03-17T08:54:02.318Z,74.78
2023-03-17T08:59:08.768Z,76.81
2023-03-17T09:04:12.759Z,71.55
2023-03-17T09:09:17.320Z,65.29
2023-03-17T09:14:25.014Z,69.38
2023-03-17T09:19:29.028Z,59.63
2023-03-17T09:24:32.979Z,60.19
2023-03-17T09:29:38.640Z,57.05
2023-03-17T09:34:43.087Z,58.88
2023-03-17T09:39:47.288Z,56.02
2023-03-17T09:45:07.336Z,49.54
2023-03-17T09:50:16.798Z,53.74
2023-03-17T09:55:28.716Z,49.04
2023-03-17T10:00:34.834Z,50.57
2023-03-17T10:05:39.746Z,49.98
2023-03-17T10:10:48.860Z,50.75
2023-03-17T10:15:59.519Z,51.78
2023-03-17T10:21:08.708Z,52.03
2023-03-17T10:26:26.263Z,51.97
2023-03-17T10:31:34.803Z,53.47
2023-03-17T10:36:42.597Z,51.94
2023-03-17T10:41:55.700Z,52.04
2023-03-17T10:47:01.228Z,53.09
2023-03-17T10:52:13.430Z,53.12
2023-03-17T10:57:18.458Z,53.42
2023-03-17T11:02:27.460Z,53.04
2023-03-17T11:07:38.281Z,51.53
2023-03-17T11:12:43.159Z,50.75
2023-03-17T11:18:03.502Z,53.89
2023-03-17T11:23:19.118Z,51.24
2023-03-17T11:28:28.343Z,54.04
2023-03-17T11:33:44.138Z,55.01
2023-03-17T11:38:58.594Z,52.58
2023-03-17T11:44:18.813Z,52.39
2023-03-17T11:49:32.499Z,52.84
2023-03-17T11:54:47.510Z,51.64
2023-03-17T11:59:55.695Z,51.87
2023-03-17T12:05:05.220Z,50.54
2023-03-17T12:10:21.883Z,53.80
2023-03-17T12:15:32.796Z,51.79
2023-03-17T12:20:48.702Z,54.94
2023-03-17T12:26:01.048Z,54.26
2023-03-17T12:31:08.888Z,55.74
2023-03-17T12:36:17.678Z,58.12
2023-03-17T12:41:33.625Z,56.10
2023-03-17T12:47:16.373Z,56.55
2023-03-17T12:52:38.713Z,59.17
2023-03-17T12:57:44.964Z,59.04
2023-03-17T13:02:53.217Z,58.47
2023-03-17T13:08:02.471Z,54.49
2023-03-17T13:13:35.742Z,53.61
2023-03-17T13:18:50.056Z,54.08
2023-03-17T13:24:21.066Z,55.06
2023-03-17T13:29:28.105Z,55.97
2023-03-17T13:34:48.167Z,53.16
2023-03-17T13:40:19.126Z,50.86
2023-03-17T13:45:38.689Z,53.69
2023-03-17T13:50:44.306Z,53.34
2023-03-17T13:56:12.056Z,51.20
2023-03-17T14:01:16.744Z,52.31
2023-03-17T14:06:26.838Z,50.98
2023-03-17T14:11:36.667Z,51.10
2023-03-17T14:16:45.770Z,52.07
2023-03-17T14:21:50.413Z,50.82
2023-03-17T14:26:57.047Z,52.91
2023-03-17T14:32:06.196Z,51.85
2023-03-17T14:37:12.578Z,52.11
2023-03-17T14:42:20.698Z,52.31
2023-03-17T14:47:27.083Z,52.01
2023-03-17T14:52:35.932Z,50.79
2023-03-17T14:57:43.592Z,51.82
2023-03-17T15:02:56.235Z,51.49
2023-03-17T15:08:00.205Z,54.56
2023-03-17T15:13:07.204Z,56.30
2023-03-17T15:18:14.244Z,56.12
2023-03-17T15:23:20.706Z,54.58
2023-03-17T15:28:33.272Z,57.78
2023-03-17T15:33:39.768Z,56.97
2023-03-17T15:38:43.714Z,57.84
2023-03-17T15:43:49.219Z,60.98
2023-03-17T15:48:53.249Z,59.78
2023-03-17T15:53:57.409Z,63.31
2023-03-17T15:59:02.817Z,66.07
2023-03-17T16:04:07.990Z,69.17
2023-03-17T16:09:18.728Z,70.73
2023-03-17T16:14:30.592Z,70.41
2023-03-17T16:19:35.069Z,73.88
2023-03-17T16:24:39.047Z,76.59
2023-03-17T16:29:44.588Z,77.50
2023-03-17T16:34:49.103Z,81.49
2023-03-17T16:39:53.013Z,80.62
2023-03-17T16:44:58.480Z,72.53
2023-03-17T16:50:02.543Z,70.93
2023-03-17T16:55:08.325Z,69.81
2023-03-17T17:00:19.055Z,68.27
2023-03-17T17:05:24.906Z,70.69
2023-03-17T17:10:31.543Z,68.67
2023-03-17T17:15:37.991Z,70.11
2023-03-17T17:20:42.292Z,70.00
2023-03-17T17:25:46.614Z,73.53
2023-03-17T17:31:17.428Z,76.33
2023-03-17T17:36:21.428Z,76.86
2023-03-17T17:41:25.696Z,77.67
2023-03-17T17:46:31.063Z,84.01
2023-03-17T17:51:35.461Z,85.62
2023-03-17T17:56:40.462Z,84.41
2023-03-17T18:01:46.097Z,85.20
2023-03-17T18:06:50.494Z,82.77
2023-03-17T18:11:54.705Z,92.18
2023-03-17T18:17:00.043Z,90.59
2023-03-17T18:22:04.544Z,87.36
2023-03-17T18:27:08.942Z,85.56
2023-03-17T18:32:15.259Z,84.87
2023-03-17T18:37:20.369Z,90.38
2023-03-17T18:42:24.494Z,92.79
2023-03-17T18:47:30.039Z,98.68
2023-03-17T18:52:34.641Z,100.00
2023-03-17T18:57:39.325Z,100.00
2023-03-17T19:02:44.857Z,100.00
2023-03-17T19:07:49.016Z,100.00
2023-03-17T19:12:53.600Z,100.00
2023-03-17T19:17:59.051Z,100.00
2023-03-17T19:23:04.556Z,100.00
2023-03-17T19:28:08.685Z,100.00
2023-03-17T19:33:15.259Z,100.00
2023-03-17T19:38:19.253Z,100.00
2023-03-17T19:43:39.444Z,100.00
2023-03-17T19:48:45.070Z,100.00
2023-03-17T19:53:50.083Z,100.00
2023-03-17T19:58:54.236Z,100.00
2023-03-17T20:04:00.059Z,100.00
2023-03-17T20:09:07.532Z,100.00
2023-03-17T20:14:11.594Z,100.00
2023-03-17T20:19:17.470Z,100.00
2023-03-17T20:24:21.508Z,100.00
2023-03-17T20:29:26.056Z,100.00
2023-03-17T20:34:31.906Z,100.00
2023-03-17T20:39:35.965Z,100.00
2023-03-17T20:44:40.036Z,100.00
2023-03-17T20:49:47.668Z,100.00
2023-03-17T20:54:52.464Z,100.00
2023-03-17T20:59:58.252Z,100.00
2023-03-17T21:05:03.787Z,100.00
2023-03-17T21:10:08.660Z,100.00
2023-03-17T21:15:14.141Z,100.00
2023-03-17T21:20:21.164Z,100.00
2023-03-17T21:25:25.594Z,100.00
2023-03-17T21:30:29.785Z,100.00
2023-03-17T21:35:36.899Z,100.00
2023-03-17T21:40:41.430Z,100.00
2023-03-17T21:45:45.600Z,100.00
2023-03-17T21:50:51.109Z,100.00
2023-03-17T21:55:55.284Z,100.00
2023-03-17T22:01:00.536Z,100.00
2023-03-17T22:06:07.133Z,100.00
2023-03-17T22:11:13.566Z,100.00
2023-03-17T22:16:18.665Z,100.00
2023-03-17T22:21:25.129Z,100.00
2023-03-17T22:26:29.215Z,100.00
2023-03-17T22:31:34.802Z,100.00
2023-03-17T22:36:40.332Z,100.00
2023-03-17T22:41:44.765Z,100.00
2023-03-17T22:46:48.892Z,100.00
2023-03-17T22:51:54.313Z,100.00
2023-03-17T22:56:58.298Z,100.00
2023-03-17T23:02:02.228Z,100.00
2023-03-17T23:07:07.601Z,100.00
2023-03-17T23:12:12.660Z,100.00
2023-03-17T23:17:16.549Z,100.00
2023-03-17T23:22:22.682Z,100.00
2023-03-17T23:27:27.250Z,100.00
2023-03-17T23:32:31.992Z,100.00
2023-03-17T23:37:38.336Z,100.00
2023-03-17T23:42:42.565Z,100.00
2023-03-17T23:47:48.158Z,100.00
2023-03-17T23:52:54.241Z,100.00
2023-03-17T23:57:58.415Z,100.00
